Time;durP1;ratioP1;P1;durP2;ratioP2;P2;SDS_P1;SDS_P2;PMS_P1;PMS_P2;Temp;Humidity;BMP_temperature;BMP_pressure;BME280_temperature;BME280_humidity;BME280_pressure;Samples;Min_cycle;Max_cycle;Signal;HPM_P1;HPM_P2
2023/06/22 00:00:50;;;;;;;0.25;0.10;;;;;;;14.80;100.00;100127.72;7401378;19;20010;-60
2023/06/22 00:03:20;;;;;;;0.47;0.17;;;;;;;14.88;100.00;100132.38;7399137;19;20026;-60
2023/06/22 00:05:48;;;;;;;2.72;0.45;;;;;;;14.79;100.00;100135.34;7401669;19;20018;-60
2023/06/22 00:08:15;;;;;;;1.40;0.40;;;;;;;14.73;100.00;100126.16;7399919;19;20016;-60
2023/06/22 00:10:42;;;;;;;0.35;0.28;;;;;;;14.79;100.00;100129.75;7398345;19;20014;-60
2023/06/22 00:13:09;;;;;;;5.80;0.60;;;;;;;14.77;100.00;100115.47;7402441;19;20019;-60
2023/06/22 00:15:37;;;;;;;1.35;0.57;;;;;;;15.02;100.00;100119.47;7397246;19;20011;-60
2023/06/22 00:18:03;;;;;;;1.08;0.30;;;;;;;15.43;100.00;100108.75;7398087;19;20036;-60
2023/06/22 00:20:29;;;;;;;0.98;0.30;;;;;;;15.61;100.00;100100.72;7398048;19;20010;-60
2023/06/22 00:22:57;;;;;;;0.70;0.28;;;;;;;15.28;100.00;100110.97;7398129;19;20474;-60
2023/06/22 00:25:23;;;;;;;0.52;0.25;;;;;;;14.85;100.00;100113.75;7399028;19;20404;-60
2023/06/22 00:27:50;;;;;;;2.17;0.40;;;;;;;22.71;100.00;100085.81;7394913;19;20011;-60
2023/06/22 00:30:18;;;;;;;0.45;0.28;;;;;;;17.35;100.00;100078.56;7396565;19;20021;-60
2023/06/22 00:32:45;;;;;;;1.90;0.45;;;;;;;16.49;100.00;100096.56;7397556;19;20018;-60
2023/06/22 00:35:14;;;;;;;0.20;0.20;;;;;;;15.87;100.00;100100.56;7397266;19;20019;-60
2023/06/22 00:37:42;;;;;;;1.83;0.57;;;;;;;16.57;100.00;100094.78;7398907;19;20484;-60
2023/06/22 00:40:11;;;;;;;1.27;0.35;;;;;;;16.30;100.00;100101.94;7396224;19;20078;-60
2023/06/22 00:42:38;;;;;;;2.25;0.13;;;;;;;15.36;100.00;100109.22;7396025;19;20014;-60
2023/06/22 00:45:06;;;;;;;1.40;0.40;;;;;;;26.43;100.00;100081.72;7397492;19;20021;-60
2023/06/22 00:47:34;;;;;;;5.15;0.25;;;;;;;16.57;100.00;100092.75;7396258;19;20014;-60
2023/06/22 00:50:00;;;;;;;0.10;0.10;;;;;;;15.59;100.00;100103.22;7397869;19;20010;-60
2023/06/22 00:52:29;;;;;;;4.30;0.43;;;;;;;15.22;100.00;100115.78;7397218;19;20009;-60
2023/06/22 00:55:01;;;;;;;1.13;0.43;;;;;;;15.00;100.00;100122.78;7397829;19;20014;-60
2023/06/22 00:57:28;;;;;;;1.35;0.80;;;;;;;14.89;100.00;100127.53;7398265;19;20597;-60
2023/06/22 00:59:55;;;;;;;0.85;0.40;;;;;;;14.73;100.00;100131.75;7394985;19;20333;-60
2023/06/22 01:02:21;;;;;;;0.60;0.35;;;;;;;14.95;100.00;100131.94;7395658;19;20013;-60
2023/06/22 01:04:48;;;;;;;2.60;0.63;;;;;;;15.12;100.00;100127.19;7396528;19;20014;-60
2023/06/22 01:07:32;;;;;;;1.85;0.45;;;;;;;15.25;100.00;100131.59;7398634;19;20006;-60
2023/06/22 01:10:27;;;;;;;1.58;0.50;;;;;;;14.91;100.00;100142.63;7394705;19;20014;-60
2023/06/22 01:13:10;;;;;;;0.43;0.43;;;;;;;14.90;100.00;100135.44;7395180;19;20026;-60
2023/06/22 01:15:42;;;;;;;3.03;0.65;;;;;;;15.22;100.00;100138.22;7395044;19;20014;-60
2023/06/22 01:18:10;;;;;;;0.38;0.17;;;;;;;15.33;100.00;100143.91;7398345;19;20416;-60
2023/06/22 01:20:37;;;;;;;1.05;0.68;;;;;;;15.28;100.00;100144.63;7396122;19;20342;-60
2023/06/22 01:23:28;;;;;;;0.55;0.32;;;;;;;15.39;100.00;100147.50;7396633;19;20025;-60
2023/06/22 01:26:18;;;;;;;0.60;0.40;;;;;;;15.42;100.00;100146.53;7395057;19;20018;-60
2023/06/22 01:28:49;;;;;;;0.57;0.20;;;;;;;15.43;100.00;100153.66;7398089;19;20022;-60
2023/06/22 01:31:19;;;;;;;0.50;0.40;;;;;;;15.38;100.00;100157.19;7395718;19;20474;-60
2023/06/22 01:33:51;;;;;;;1.33;0.50;;;;;;;15.43;100.00;100151.66;7394271;19;20014;-60
2023/06/22 01:36:18;;;;;;;0.98;0.28;;;;;;;15.45;100.00;100154.72;7394592;19;20014;-59
2023/06/22 01:38:47;;;;;;;6.63;0.30;;;;;;;15.13;100.00;100159.59;7398120;19;20054;-60
2023/06/22 01:41:14;;;;;;;1.10;0.52;;;;;;;15.52;100.00;100156.28;7396202;19;20017;-60
2023/06/22 01:43:41;;;;;;;1.35;0.73;;;;;;;15.44;100.00;100160.84;7395645;19;20074;-60
2023/06/22 01:46:08;;;;;;;0.73;0.73;;;;;;;15.06;100.00;100160.06;7394529;19;20026;-59
2023/06/22 01:48:34;;;;;;;1.65;0.68;;;;;;;15.35;100.00;100161.00;7397622;19;20340;-60
2023/06/22 01:51:02;;;;;;;3.92;0.80;;;;;;;15.73;100.00;100157.66;7393080;19;20083;-60
2023/06/22 01:53:28;;;;;;;0.73;0.20;;;;;;;15.89;100.00;100148.56;7394521;19;20402;-60
2023/06/22 01:55:56;;;;;;;1.58;0.30;;;;;;;15.75;100.00;100153.09;7395798;19;20038;-60
2023/06/22 01:58:26;;;;;;;1.23;0.35;;;;;;;15.90;100.00;100158.50;7395965;19;20007;-59
2023/06/22 02:01:09;;;;;;;0.70;0.32;;;;;;;16.23;100.00;100153.00;7393096;19;20478;-60
2023/06/22 02:03:43;;;;;;;1.27;0.45;;;;;;;16.52;100.00;100149.75;7394545;19;20037;-60
2023/06/22 02:06:27;;;;;;;0.95;0.43;;;;;;;16.67;100.00;100141.09;7397774;19;20028;-60
2023/06/22 02:09:00;;;;;;;0.30;0.22;;;;;;;16.60;100.00;100148.00;7394460;19;20038;-60
2023/06/22 02:11:30;;;;;;;0.63;0.40;;;;;;;15.90;100.00;100166.94;7393054;19;20011;-60
2023/06/22 02:13:58;;;;;;;0.77;0.25;;;;;;;16.03;100.00;100161.63;7393110;19;20078;-60
2023/06/22 02:16:29;;;;;;;2.08;0.40;;;;;;;16.04;100.00;100171.59;7392090;19;20014;-60
2023/06/22 02:19:01;;;;;;;0.70;0.40;;;;;;;15.42;100.00;100166.16;7398039;19;20066;-60
2023/06/22 02:21:28;;;;;;;0.50;0.10;;;;;;;15.29;100.00;100168.63;7393848;19;20024;-60
2023/06/22 02:23:54;;;;;;;1.13;0.50;;;;;;;15.24;100.00;100174.97;7392655;19;20041;-60
2023/06/22 02:26:20;;;;;;;0.35;0.30;;;;;;;15.52;100.00;100168.31;7393448;19;20025;-60
2023/06/22 02:28:46;;;;;;;0.90;0.30;;;;;;;15.84;100.00;100166.16;7396397;19;20388;-60
2023/06/22 02:31:12;;;;;;;5.07;0.90;;;;;;;26.40;100.00;100127.81;7393247;19;20093;-60
2023/06/22 02:33:38;;;;;;;3.03;0.22;;;;;;;19.94;100.00;100141.97;7393756;19;20014;-60
2023/06/22 02:36:05;;;;;;;1.73;0.20;;;;;;;16.34;100.00;100153.03;7393833;19;20007;-60
2023/06/22 02:38:34;;;;;;;0.28;0.20;;;;;;;15.56;100.00;100173.66;7396121;19;20010;-60
2023/06/22 02:41:01;;;;;;;0.90;0.65;;;;;;;15.36;100.00;100179.38;7393410;19;20070;-60
2023/06/22 02:43:27;;;;;;;9.00;0.93;;;;;;;15.22;100.00;100185.94;7392550;19;20044;-60
2023/06/22 02:45:53;;;;;;;2.88;0.40;;;;;;;15.17;100.00;100179.00;7393332;19;20010;-60
2023/06/22 02:48:19;;;;;;;1.67;0.40;;;;;;;15.14;100.00;100183.56;7395093;19;20042;-60
2023/06/22 02:50:46;;;;;;;2.47;0.90;;;;;;;18.94;100.00;100145.84;7394019;19;20007;-60
2023/06/22 02:53:12;;;;;;;1.75;0.47;;;;;;;15.69;100.00;100169.16;7392396;19;20463;-60
2023/06/22 02:55:42;;;;;;;0.28;0.22;;;;;;;15.41;100.00;100179.44;7392820;19;20007;-60
2023/06/22 02:58:08;;;;;;;4.68;0.77;;;;;;;28.08;100.00;100147.38;7394236;19;20511;-60
2023/06/22 03:00:39;;;;;;;2.30;0.47;;;;;;;18.47;100.00;100153.66;7391551;19;20015;-60
2023/06/22 03:03:05;;;;;;;0.32;0.20;;;;;;;17.29;100.00;100153.81;7393544;19;20018;-59
2023/06/22 03:05:32;;;;;;;4.82;0.65;;;;;;;16.66;100.00;100168.44;7394244;19;20021;-59
2023/06/22 03:07:59;;;;;;;1.00;0.30;;;;;;;16.80;100.00;100165.91;7392928;19;20018;-59
2023/06/22 03:10:27;;;;;;;1.25;0.40;;;;;;;16.58;100.00;100167.41;7391780;19;20443;-60
2023/06/22 03:12:54;;;;;;;0.43;0.32;;;;;;;16.18;100.00;100167.78;7391338;19;20038;-59
2023/06/22 03:15:20;;;;;;;2.67;0.65;;;;;;;16.49;100.00;100175.28;7393425;19;20020;-59
2023/06/22 03:17:47;;;;;;;0.38;0.30;;;;;;;17.02;100.00;100160.28;7393152;19;20078;-59
2023/06/22 03:20:13;;;;;;;2.78;0.28;;;;;;;16.97;100.00;100167.44;7391837;19;20039;-55
2023/06/22 03:22:42;;;;;;;3.92;0.60;;;;;;;16.70;100.00;100168.19;7391589;19;20031;-95
2023/06/22 03:25:14;;;;;;;3.13;0.52;;;;;;;16.18;100.00;100176.22;7388440;19;20416;-94
2023/06/22 03:27:47;;;;;;;1.05;0.20;;;;;;;15.98;100.00;100186.91;7390903;19;20023;-94
2023/06/22 03:30:14;;;;;;;1.27;0.30;;;;;;;16.09;100.00;100187.69;7391499;19;20035;-93
2023/06/22 03:32:40;;;;;;;0.80;0.47;;;;;;;16.42;100.00;100187.78;7390617;19;20029;-95
2023/06/22 03:35:07;;;;;;;2.58;0.65;;;;;;;16.67;100.00;100175.59;7388976;19;20015;-95
2023/06/22 03:37:35;;;;;;;1.65;0.45;;;;;;;16.77;100.00;100178.16;7388960;19;20027;-94
2023/06/22 03:40:03;;;;;;;1.23;0.65;;;;;;;16.85;100.00;100173.56;7389737;19;20022;-94
2023/06/22 03:42:29;;;;;;;2.67;0.45;;;;;;;17.01;100.00;100167.94;7389741;19;20018;-94
2023/06/22 03:44:56;;;;;;;0.20;0.10;;;;;;;16.26;100.00;100163.25;7392011;19;20023;-94
2023/06/22 03:47:23;;;;;;;0.85;0.32;;;;;;;16.14;100.00;100175.72;7389440;19;20015;-95
2023/06/22 03:49:49;;;;;;;0.43;0.22;;;;;;;16.22;100.00;100185.19;7392208;19;20023;-94
2023/06/22 03:52:15;;;;;;;1.10;0.35;;;;;;;16.50;100.00;100183.22;7399642;19;20010;-95
2023/06/22 03:54:41;;;;;;;1.17;0.50;;;;;;;16.67;100.00;100172.78;7396057;19;20734;-95
2023/06/22 03:57:07;;;;;;;2.58;0.63;;;;;;;16.75;100.00;100172.28;7399781;19;20029;-94
2023/06/22 03:59:33;;;;;;;2.20;0.73;;;;;;;17.17;100.00;100169.22;7398087;19;20046;-95
2023/06/22 04:02:00;;;;;;;0.47;0.30;;;;;;;16.91;100.00;100171.53;7399316;19;20026;-93
2023/06/22 04:04:26;;;;;;;2.47;0.47;;;;;;;16.82;100.00;100174.59;7398538;19;20026;-94
2023/06/22 04:06:52;;;;;;;2.03;0.32;;;;;;;16.56;100.00;100183.25;7398456;19;20015;-94
2023/06/22 04:09:18;;;;;;;2.53;0.77;;;;;;;17.27;100.00;100170.47;7403479;19;20022;-94
2023/06/22 04:11:44;;;;;;;1.05;0.40;;;;;;;16.30;100.00;100177.03;7396911;19;20015;-95
2023/06/22 04:14:10;;;;;;;2.22;1.13;;;;;;;16.38;100.00;100178.84;7398067;19;20078;-94
2023/06/22 04:16:36;;;;;;;0.47;0.40;;;;;;;16.83;100.00;100173.31;7397273;19;20010;-95
2023/06/22 04:19:02;;;;;;;1.25;0.95;;;;;;;16.40;100.00;100178.31;7403118;19;20023;-96
2023/06/22 04:21:29;;;;;;;1.65;0.65;;;;;;;16.39;100.00;100177.59;7397952;19;20018;-93
2023/06/22 04:23:55;;;;;;;1.17;0.43;;;;;;;15.26;100.00;100189.28;7397726;19;20368;-95
2023/06/22 04:26:21;;;;;;;2.65;0.52;;;;;;;15.72;100.00;100184.97;7399248;19;20017;-94
2023/06/22 04:28:51;;;;;;;2.95;0.50;;;;;;;15.33;100.00;100194.44;7398074;19;20025;-94
2023/06/22 04:31:20;;;;;;;0.82;0.38;;;;;;;15.11;100.00;100198.63;7396226;19;20066;-94
2023/06/22 04:33:47;;;;;;;1.15;0.57;;;;;;;15.27;100.00;100196.44;7396787;19;20018;-94
2023/06/22 04:36:13;;;;;;;1.42;0.55;;;;;;;15.17;100.00;100182.59;7396617;19;20666;-94
2023/06/22 04:38:40;;;;;;;4.93;1.48;;;;;;;15.37;100.00;100194.97;7398950;19;20011;-94
2023/06/22 04:41:06;;;;;;;0.38;0.10;;;;;;;15.56;100.00;100180.06;7397993;19;20036;-94
2023/06/22 04:43:34;;;;;;;0.73;0.40;;;;;;;15.79;100.00;100189.34;7397310;19;20022;-93
2023/06/22 04:46:03;;;;;;;1.38;0.57;;;;;;;16.31;100.00;100176.53;7394898;19;20014;-94
2023/06/22 04:48:32;;;;;;;2.22;0.50;;;;;;;15.94;100.00;100182.28;7396290;19;20018;-94
2023/06/22 04:51:03;;;;;;;4.07;0.35;;;;;;;15.73;100.00;100185.75;7395249;19;20031;-94
2023/06/22 04:53:33;;;;;;;1.45;0.95;;;;;;;15.89;100.00;100183.03;7398987;19;20010;-94
2023/06/22 04:55:59;;;;;;;2.38;0.45;;;;;;;16.03;100.00;100184.09;7395535;19;20651;-93
2023/06/22 04:58:28;;;;;;;2.47;0.63;;;;;;;16.31;100.00;100187.75;7398987;19;20023;-94
2023/06/22 05:00:56;;;;;;;2.42;0.88;;;;;;;16.23;100.00;100192.34;7395708;19;20014;-94
2023/06/22 05:03:25;;;;;;;0.32;0.30;;;;;;;16.60;100.00;100183.78;7397297;19;20018;-94
2023/06/22 05:05:52;;;;;;;1.45;0.70;;;;;;;16.38;100.00;100178.06;7397700;19;20479;-93
2023/06/22 05:08:18;;;;;;;1.45;0.82;;;;;;;16.86;100.00;100166.66;7398141;19;20031;-94
2023/06/22 05:10:44;;;;;;;2.28;0.40;;;;;;;16.55;100.00;100188.09;7396757;19;20081;-93
2023/06/22 05:13:11;;;;;;;0.25;0.10;;;;;;;15.89;100.00;100187.88;7396589;19;20652;-93
2023/06/22 05:15:39;;;;;;;1.15;0.52;;;;;;;15.73;100.00;100199.78;7395191;19;20034;-91
2023/06/22 05:18:06;;;;;;;1.30;0.30;;;;;;;15.37;100.00;100206.19;7398760;19;20120;-93
2023/06/22 05:20:35;;;;;;;1.00;0.45;;;;;;;15.80;100.00;100202.13;7398178;19;20007;-95
2023/06/22 05:23:02;;;;;;;2.75;1.17;;;;;;;15.87;100.00;100199.59;7397561;19;20026;-93
2023/06/22 05:25:29;;;;;;;1.73;0.38;;;;;;;16.07;100.00;100201.47;7392839;19;20015;-89
2023/06/22 05:27:55;;;;;;;1.02;0.30;;;;;;;16.35;100.00;100204.41;7396197;19;20026;-91
2023/06/22 05:30:22;;;;;;;1.55;0.45;;;;;;;16.45;100.00;100191.63;7396102;19;20019;-92
2023/06/22 05:32:48;;;;;;;0.88;0.10;;;;;;;16.72;100.00;100193.75;7395936;19;20357;-92
2023/06/22 05:35:14;;;;;;;1.70;0.80;;;;;;;16.50;100.00;100194.47;7393510;19;20019;-93
2023/06/22 05:37:40;;;;;;;0.47;0.30;;;;;;;16.40;100.00;100195.19;7399718;19;20048;-91
2023/06/22 05:40:07;;;;;;;0.30;0.20;;;;;;;16.34;100.00;100202.84;7394424;19;20021;-91
2023/06/22 05:42:33;;;;;;;0.20;0.10;;;;;;;16.46;100.00;100213.59;7399816;19;20029;-93
2023/06/22 05:44:59;;;;;;;4.15;0.80;;;;;;;16.29;100.00;100212.81;7398374;19;20022;-92
2023/06/22 05:47:25;;;;;;;1.65;0.70;;;;;;;16.44;100.00;100224.59;7396306;19;20425;-93
2023/06/22 05:49:51;;;;;;;1.92;0.50;;;;;;;16.40;100.00;100214.88;7398424;19;20463;-92
2023/06/22 05:52:17;;;;;;;12.80;0.70;;;;;;;16.99;100.00;100220.38;7393836;19;20018;-95
2023/06/22 05:54:44;;;;;;;1.05;0.40;;;;;;;16.97;100.00;100217.31;7393807;19;20468;-95
2023/06/22 05:57:10;;;;;;;1.50;0.60;;;;;;;16.85;100.00;100219.34;7395735;19;20078;-95
2023/06/22 05:59:36;;;;;;;2.15;0.30;;;;;;;17.62;100.00;100218.56;7398135;19;20021;-93
2023/06/22 06:02:02;;;;;;;1.65;0.50;;;;;;;17.80;100.00;100212.34;7392080;19;20011;-92
2023/06/22 06:04:28;;;;;;;2.00;0.10;;;;;;;17.97;100.00;100218.72;7391897;19;20178;-92
2023/06/22 06:06:55;;;;;;;0.65;0.40;;;;;;;17.66;100.00;100212.66;7395194;19;20014;-93
2023/06/22 06:09:21;;;;;;;1.48;0.45;;;;;;;17.54;100.00;100223.19;7398410;19;20026;-92
2023/06/22 06:11:47;;;;;;;2.60;0.50;;;;;;;17.48;100.00;100224.47;7392654;19;20025;-90
2023/06/22 06:14:13;;;;;;;2.13;0.30;;;;;;;17.62;100.00;100227.00;7391039;19;20058;-91
2023/06/22 06:16:39;;;;;;;0.95;0.35;;;;;;;17.70;100.00;100219.56;7393017;19;20021;-92
2023/06/22 06:19:05;;;;;;;1.80;0.50;;;;;;;17.64;100.00;100230.09;7392460;19;20014;-92
2023/06/22 06:21:31;;;;;;;1.52;0.25;;;;;;;17.44;100.00;100230.34;7392781;19;20078;-91
2023/06/22 06:23:58;;;;;;;1.48;0.40;;;;;;;17.50;100.00;100228.31;7396390;19;20026;-91
2023/06/22 06:26:35;;;;;;;3.60;0.52;;;;;;;17.42;100.00;100228.03;7397676;19;20030;-91
2023/06/22 06:29:02;;;;;;;0.90;0.70;;;;;;;17.86;100.00;100235.66;7395997;19;20361;-91
2023/06/22 06:31:28;;;;;;;1.52;0.22;;;;;;;18.04;100.00;100232.25;7397765;19;20042;-91
2023/06/22 06:33:55;;;;;;;0.43;0.13;;;;;;;17.92;100.00;100236.41;7398710;19;20364;-91
2023/06/22 06:36:21;;;;;;;0.40;0.35;;;;;;;17.86;100.00;100230.03;7397484;19;20369;-91
2023/06/22 06:38:47;;;;;;;2.33;0.73;;;;;;;18.00;100.00;100231.78;7397104;19;20023;-93
2023/06/22 06:41:15;;;;;;;0.10;0.10;;;;;;;34.41;88.70;100200.72;7398245;19;20006;-92
2023/06/22 06:43:44;;;;;;;2.50;0.98;;;;;;;37.49;66.18;100185.53;7395721;19;20363;-92
2023/06/22 06:46:10;;;;;;;3.45;0.82;;;;;;;38.33;60.16;100197.25;7396004;19;20022;-91
2023/06/22 06:48:36;;;;;;;0.35;0.30;;;;;;;38.72;57.25;100201.72;7394147;19;20014;-91
2023/06/22 06:51:02;;;;;;;0.28;0.15;;;;;;;39.03;55.21;100192.78;7396168;19;20022;-91
2023/06/22 06:53:29;;;;;;;0.45;0.17;;;;;;;39.32;53.28;100195.34;7397065;19;20031;-92
2023/06/22 06:55:55;;;;;;;0.40;0.25;;;;;;;38.37;54.20;100206.13;7394159;19;20018;-90
2023/06/22 06:58:22;;;;;;;1.40;0.30;;;;;;;40.04;49.80;100185.59;7394602;19;20015;-92
2023/06/22 07:00:49;;;;;;;1.15;0.50;;;;;;;40.41;48.33;100196.34;7394012;19;20030;-91
2023/06/22 07:03:15;;;;;;;1.45;0.30;;;;;;;39.40;48.49;100202.22;7388037;19;20804;-91
2023/06/22 07:05:41;;;;;;;3.72;0.68;;;;;;;28.51;100.00;100212.53;7391302;19;20023;-91
2023/06/22 07:08:07;;;;;;;0.63;0.17;;;;;;;26.64;100.00;100213.56;7395041;19;20022;-90
2023/06/22 07:10:33;;;;;;;0.45;0.20;;;;;;;26.78;100.00;100217.72;7391061;19;20048;-89
2023/06/22 07:12:59;;;;;;;1.55;0.38;;;;;;;25.98;100.00;100214.00;7392249;19;20018;-90
2023/06/22 07:15:25;;;;;;;0.68;0.38;;;;;;;25.72;100.00;100216.50;7387453;19;20006;-89
2023/06/22 07:17:52;;;;;;;0.77;0.40;;;;;;;26.59;100.00;100223.13;7394149;19;20006;-90
2023/06/22 07:20:19;;;;;;;0.30;0.30;;;;;;;26.06;100.00;100211.09;7390645;19;20019;-89
2023/06/22 07:22:45;;;;;;;2.72;0.63;;;;;;;38.48;70.43;100208.06;7392505;19;20103;-89
2023/06/22 07:25:16;;;;;;;0.32;0.22;;;;;;;41.34;52.81;100206.59;7391580;19;20022;-89
2023/06/22 07:28:02;;;;;;;0.82;0.32;;;;;;;42.86;46.39;100203.28;7397197;19;20015;-89
2023/06/22 07:30:29;;;;;;;1.20;0.22;;;;;;;43.02;44.17;100199.22;7396694;19;20014;-89
2023/06/22 07:32:56;;;;;;;0.47;0.10;;;;;;;27.28;100.00;100217.75;7397531;19;20044;-88
2023/06/22 07:35:22;;;;;;;3.15;0.55;;;;;;;27.59;100.00;100213.34;7395683;19;20033;-89
2023/06/22 07:37:48;;;;;;;2.97;0.57;;;;;;;22.11;100.00;100217.19;7400017;19;20041;-88
2023/06/22 07:40:14;;;;;;;0.60;0.20;;;;;;;20.86;100.00;100209.09;7397599;19;20011;-89
2023/06/22 07:42:41;;;;;;;0.28;0.10;;;;;;;20.54;100.00;100211.13;7397800;19;20015;-88
2023/06/22 07:45:08;;;;;;;1.65;0.47;;;;;;;20.21;100.00;100222.88;7396763;19;20438;-91
2023/06/22 07:47:37;;;;;;;1.65;0.30;;;;;;;20.33;100.00;100221.47;7397611;19;20022;-88
2023/06/22 07:50:04;;;;;;;6.43;0.85;;;;;;;20.12;100.00;100220.41;7398789;19;20021;-87
2023/06/22 07:52:31;;;;;;;0.10;0.10;;;;;;;21.56;100.00;100218.25;7399874;19;20022;-88
2023/06/22 07:54:57;;;;;;;1.80;0.70;;;;;;;19.87;100.00;100227.38;7396921;19;20090;-87
2023/06/22 07:57:31;;;;;;;1.60;0.35;;;;;;;19.68;100.00;100236.56;7399410;19;20010;-86
2023/06/22 07:59:59;;;;;;;1.05;0.45;;;;;;;19.67;100.00;100242.75;7396392;19;20011;-88
2023/06/22 08:02:25;;;;;;;1.13;0.28;;;;;;;20.40;100.00;100237.81;7397372;19;20023;-87
2023/06/22 08:04:52;;;;;;;2.85;0.82;;;;;;;19.84;100.00;100242.59;7397118;19;20011;-87
2023/06/22 08:07:19;;;;;;;1.42;0.40;;;;;;;20.34;100.00;100243.53;7399408;19;20015;-87
2023/06/22 08:09:48;;;;;;;0.73;0.50;;;;;;;20.34;100.00;100239.94;7398931;19;20351;-87
2023/06/22 08:12:14;;;;;;;0.47;0.17;;;;;;;20.70;100.00;100227.13;7397078;19;20018;-87
2023/06/22 08:14:43;;;;;;;3.10;0.85;;;;;;;20.62;100.00;100237.50;7394618;19;20018;-89
2023/06/22 08:17:09;;;;;;;2.28;0.75;;;;;;;20.74;100.00;100230.41;7399232;19;20349;-90
2023/06/22 08:19:37;;;;;;;3.33;0.30;;;;;;;21.34;100.00;100224.31;7396944;19;20015;-89
2023/06/22 08:22:03;;;;;;;0.85;0.40;;;;;;;21.57;100.00;100223.38;7398445;19;20074;-91
2023/06/22 08:24:30;;;;;;;1.90;0.20;;;;;;;21.76;100.00;100224.06;7396900;19;20023;-91
2023/06/22 08:26:56;;;;;;;0.88;0.43;;;;;;;21.84;100.00;100216.44;7396588;19;20500;-91
2023/06/22 08:29:22;;;;;;;1.08;0.30;;;;;;;21.78;100.00;100221.44;7400158;19;20010;-89
2023/06/22 08:31:48;;;;;;;1.60;0.63;;;;;;;22.01;100.00;100212.50;7396979;19;20029;-89
2023/06/22 08:34:14;;;;;;;0.52;0.32;;;;;;;22.19;100.00;100217.31;7395183;19;20074;-91
2023/06/22 08:36:48;;;;;;;0.98;0.10;;;;;;;21.66;100.00;100210.84;7394878;19;20010;-90
2023/06/22 08:39:14;;;;;;;1.65;0.25;;;;;;;21.25;100.00;100216.22;7394956;19;20010;-90
2023/06/22 08:41:40;;;;;;;3.00;0.52;;;;;;;21.43;100.00;100206.91;7399162;19;20019;-90
2023/06/22 08:44:07;;;;;;;1.17;0.20;;;;;;;21.40;100.00;100217.25;7394690;19;20022;-89
2023/06/22 08:46:33;;;;;;;1.98;0.75;;;;;;;21.59;100.00;100215.09;7395442;19;20022;-90
2023/06/22 08:48:59;;;;;;;1.63;0.50;;;;;;;21.31;100.00;100216.91;7394889;19;20014;-89
2023/06/22 08:51:26;;;;;;;0.10;0.10;;;;;;;21.34;100.00;100221.47;7399569;19;20409;-90
2023/06/22 08:53:52;;;;;;;1.50;0.80;;;;;;;21.55;100.00;100222.41;7396536;19;20042;-91
2023/06/22 08:56:19;;;;;;;1.52;0.55;;;;;;;21.66;100.00;100222.19;7397101;19;20048;-88
2023/06/22 08:58:45;;;;;;;0.40;0.10;;;;;;;21.76;100.00;100226.13;7396359;19;20081;-87
2023/06/22 09:01:11;;;;;;;1.30;0.35;;;;;;;21.60;100.00;100215.84;7395736;19;20476;-87
2023/06/22 09:03:37;;;;;;;0.30;0.10;;;;;;;21.39;100.00;100221.38;7395428;19;20349;-89
2023/06/22 09:06:03;;;;;;;0.70;0.20;;;;;;;21.65;100.00;100223.50;7398633;19;20015;-88
2023/06/22 09:08:30;;;;;;;3.58;0.52;;;;;;;21.43;100.00;100226.72;7393748;19;20381;-89
2023/06/22 09:10:56;;;;;;;2.47;0.45;;;;;;;21.30;100.00;100235.97;7396237;19;20018;-88
2023/06/22 09:13:22;;;;;;;1.85;0.32;;;;;;;21.46;100.00;100225.66;7395829;19;20018;-88
2023/06/22 09:15:48;;;;;;;1.88;0.40;;;;;;;21.61;100.00;100225.91;7392000;19;20038;-89
2023/06/22 09:18:15;;;;;;;2.85;0.75;;;;;;;21.57;100.00;100219.78;7395922;19;20020;-88
2023/06/22 09:20:41;;;;;;;2.78;0.22;;;;;;;21.40;100.00;100222.13;7394378;19;20033;-87
2023/06/22 09:23:07;;;;;;;1.75;0.47;;;;;;;21.68;100.00;100225.22;7393814;19;20019;-87
2023/06/22 09:25:33;;;;;;;1.45;0.65;;;;;;;21.73;100.00;100232.88;7393360;19;20400;-87
2023/06/22 09:28:00;;;;;;;4.82;1.40;;;;;;;21.84;100.00;100227.03;7392477;19;20014;-88
2023/06/22 09:30:26;;;;;;;0.98;0.20;;;;;;;22.01;100.00;100227.47;7394456;19;20018;-88
2023/06/22 09:32:52;;;;;;;0.45;0.28;;;;;;;21.91;100.00;100228.44;7395435;19;20022;-87
2023/06/22 09:35:18;;;;;;;0.75;0.50;;;;;;;21.93;100.00;100229.44;7394035;19;20011;-88
2023/06/22 09:37:45;;;;;;;1.35;0.20;;;;;;;21.74;100.00;100234.41;7396693;19;20038;-87
2023/06/22 09:40:12;;;;;;;2.95;0.50;;;;;;;21.73;100.00;100224.38;7393086;19;20421;-87
2023/06/22 09:42:39;;;;;;;2.58;0.60;;;;;;;21.70;100.00;100223.38;7394295;19;20018;-88
2023/06/22 09:45:06;;;;;;;2.22;0.70;;;;;;;21.76;100.00;100235.41;7391533;19;20010;-86
2023/06/22 09:47:32;;;;;;;2.00;0.25;;;;;;;21.92;100.00;100233.56;7391066;19;20082;-87
2023/06/22 09:49:59;;;;;;;1.17;0.25;;;;;;;22.19;100.00;100235.09;7392897;19;20361;-85
2023/06/22 09:52:26;;;;;;;3.95;0.47;;;;;;;22.29;100.00;100229.72;7397408;19;20361;-85
2023/06/22 09:54:52;;;;;;;2.45;0.32;;;;;;;22.17;100.00;100239.78;7395648;19;20014;-86
2023/06/22 09:57:18;;;;;;;0.85;0.40;;;;;;;22.36;100.00;100237.56;7393108;19;20043;-87
2023/06/22 09:59:44;;;;;;;2.33;0.50;;;;;;;22.46;100.00;100236.56;7392641;19;20089;-87
2023/06/22 10:02:10;;;;;;;1.58;0.20;;;;;;;22.75;100.00;100242.41;7397351;19;20011;-87
2023/06/22 10:04:36;;;;;;;2.22;0.63;;;;;;;22.97;100.00;100244.75;7392205;19;20086;-87
2023/06/22 10:07:03;;;;;;;3.55;0.57;;;;;;;23.30;100.00;100244.69;7394181;19;20019;-87
2023/06/22 10:09:29;;;;;;;0.63;0.20;;;;;;;23.21;100.00;100247.28;7392386;19;20014;-88
2023/06/22 10:11:55;;;;;;;5.68;0.57;;;;;;;23.37;100.00;100248.94;7397965;19;20019;-87
2023/06/22 10:14:21;;;;;;;2.30;0.70;;;;;;;23.25;100.00;100245.59;7392003;19;20018;-89
2023/06/22 10:16:48;;;;;;;1.45;0.15;;;;;;;23.02;100.00;100241.03;7393306;19;20037;-88
2023/06/22 10:19:14;;;;;;;1.45;0.10;;;;;;;23.15;100.00;100246.66;7393247;19;20014;-90
2023/06/22 10:21:40;;;;;;;2.92;0.30;;;;;;;23.26;100.00;100243.50;7395054;19;20014;-88
2023/06/22 10:24:07;;;;;;;1.85;0.75;;;;;;;23.43;100.00;100241.06;7390946;19;20010;-89
2023/06/22 10:26:33;;;;;;;0.60;0.20;;;;;;;23.51;100.00;100241.09;7391403;19;20027;-88
2023/06/22 10:29:00;;;;;;;2.28;0.52;;;;;;;23.26;100.00;100246.34;7389802;19;20075;-89
2023/06/22 10:31:27;;;;;;;7.82;0.73;;;;;;;23.24;100.00;100249.00;7395659;19;20025;-87
2023/06/22 10:33:54;;;;;;;0.40;0.38;;;;;;;23.62;100.00;100257.88;7391224;19;20048;-87
2023/06/22 10:36:21;;;;;;;1.58;0.47;;;;;;;23.78;100.00;100254.59;7393684;19;20011;-86
2023/06/22 10:38:48;;;;;;;1.25;0.47;;;;;;;23.60;100.00;100260.53;7392325;19;20015;-87
2023/06/22 10:41:14;;;;;;;4.30;0.38;;;;;;;23.55;100.00;100262.19;7393479;19;20018;-86
2023/06/22 10:43:41;;;;;;;2.42;0.65;;;;;;;23.38;100.00;100256.16;7392136;19;20111;-86
2023/06/22 10:46:07;;;;;;;1.95;0.57;;;;;;;23.47;100.00;100247.16;7392203;19;20014;-86
2023/06/22 10:48:33;;;;;;;2.90;0.60;;;;;;;23.72;100.00;100251.13;7390741;19;20050;-85
2023/06/22 10:50:59;;;;;;;4.00;1.52;;;;;;;23.63;100.00;100257.31;7391497;19;20085;-85
2023/06/22 10:53:25;;;;;;;0.52;0.30;;;;;;;23.81;100.00;100258.41;7391097;19;20022;-84
2023/06/22 10:55:53;;;;;;;1.33;0.52;;;;;;;24.17;100.00;100255.66;7388315;19;20018;-83
2023/06/22 10:58:19;;;;;;;2.20;0.52;;;;;;;24.41;100.00;100255.94;7389862;19;20052;-84
2023/06/22 11:00:45;;;;;;;2.13;0.40;;;;;;;24.33;100.00;100258.00;7397189;19;20066;-83
2023/06/22 11:03:12;;;;;;;5.93;1.40;;;;;;;25.07;100.00;100256.00;7400113;19;20025;-84
2023/06/22 11:05:38;;;;;;;1.48;0.55;;;;;;;24.80;100.00;100258.41;7397798;19;20030;-85
2023/06/22 11:08:04;;;;;;;2.15;0.50;;;;;;;25.04;100.00;100265.69;7399314;19;20094;-84
2023/06/22 11:10:30;;;;;;;1.45;0.80;;;;;;;25.53;100.00;100254.75;7397436;19;20018;-85
2023/06/22 11:12:57;;;;;;;1.77;0.30;;;;;;;25.69;100.00;100257.59;7398277;19;20027;-83
2023/06/22 11:15:25;;;;;;;7.10;0.47;;;;;;;26.11;100.00;100247.28;7394365;19;20480;-83
2023/06/22 11:17:51;;;;;;;3.17;0.55;;;;;;;25.36;100.00;100248.06;7397803;19;20405;-84